Time;durP1;ratioP1;P1;durP2;ratioP2;P2;SDS_P1;SDS_P2;PMS_P1;PMS_P2;Temp;Humidity;BMP_temperature;BMP_pressure;BME280_temperature;BME280_humidity;BME280_pressure;Samples;Min_cycle;Max_cycle;Signal;HPM_P1;HPM_P2
2022/08/04 00:00:04;;;;;;;1.23;0.75;;;;;;;29.31;40.92;101315.44;5107946;28;20036;-46
2022/08/04 00:02:55;;;;;;;0.82;0.70;;;;;;;29.24;40.86;101304.03;5080372;28;20535;-46
2022/08/04 00:05:33;;;;;;;1.52;0.90;;;;;;;29.29;40.67;101316.34;5087860;28;20123;-47
2022/08/04 00:08:12;;;;;;;1.70;0.80;;;;;;;29.32;41.08;101319.84;5096811;28;20534;-44
2022/08/04 00:10:41;;;;;;;0.80;0.70;;;;;;;29.32;40.64;101321.59;5097294;28;20458;-52
2022/08/04 00:13:09;;;;;;;0.43;0.38;;;;;;;29.26;40.54;101312.81;5115192;28;20023;-45
2022/08/04 00:15:38;;;;;;;1.17;0.88;;;;;;;29.18;40.82;101321.66;5096749;28;20070;-45
2022/08/04 00:18:08;;;;;;;1.33;0.73;;;;;;;29.18;40.99;101326.94;5096968;28;20515;-46
2022/08/04 00:20:42;;;;;;;1.75;0.90;;;;;;;29.13;41.00;101315.50;5096542;28;20027;-45
2022/08/04 00:23:11;;;;;;;2.40;1.00;;;;;;;29.19;40.75;101332.22;5096445;28;20023;-45
2022/08/04 00:25:40;;;;;;;2.60;0.90;;;;;;;29.15;40.94;101335.72;5114400;28;20048;-55
2022/08/04 00:28:08;;;;;;;1.13;0.77;;;;;;;29.13;41.13;101337.50;5115048;28;20031;-44
2022/08/04 00:30:37;;;;;;;1.77;0.70;;;;;;;28.99;40.86;101315.53;5114624;28;20019;-45
2022/08/04 00:33:05;;;;;;;1.30;0.60;;;;;;;29.17;40.92;101328.69;5114692;28;20077;-45
2022/08/04 00:35:34;;;;;;;1.65;0.80;;;;;;;29.13;40.74;101329.56;5114365;28;20024;-48
2022/08/04 00:38:03;;;;;;;1.88;0.80;;;;;;;29.19;40.53;101336.63;5096315;28;20027;-45
2022/08/04 00:41:01;;;;;;;2.00;0.88;;;;;;;29.16;40.53;101340.13;5114349;28;20031;-45
2022/08/04 00:43:34;;;;;;;2.78;1.00;;;;;;;29.12;40.74;101333.13;5096811;28;20419;-45
2022/08/04 00:46:30;;;;;;;1.80;0.70;;;;;;;29.15;40.53;101340.16;5079241;28;20023;-51
2022/08/04 00:49:17;;;;;;;1.98;0.70;;;;;;;29.23;40.19;101343.63;5092279;28;20043;-45
2022/08/04 00:52:24;;;;;;;19.83;1.60;;;;;;;29.25;40.12;101341.88;5104667;28;20372;-44
2022/08/04 00:55:30;;;;;;;2.47;0.93;;;;;;;29.14;40.33;101344.53;5112483;28;20473;-44
2022/08/04 00:58:36;;;;;;;1.95;1.10;;;;;;;29.07;40.37;101343.69;5101098;28;20035;-44
2022/08/04 01:01:07;;;;;;;2.00;0.90;;;;;;;29.07;40.34;101338.41;5102457;28;20063;-44
2022/08/04 01:03:55;;;;;;;4.03;1.00;;;;;;;29.16;40.32;101339.28;5096044;28;20028;-45
2022/08/04 01:06:26;;;;;;;1.83;0.93;;;;;;;29.08;40.26;101329.59;5095682;28;20476;-46
2022/08/04 01:08:55;;;;;;;1.15;0.80;;;;;;;29.05;40.23;101340.16;5113941;28;20063;-45
2022/08/04 01:11:52;;;;;;;2.15;1.08;;;;;;;28.96;40.59;101332.28;5113822;28;20364;-51
2022/08/04 01:14:58;;;;;;;2.65;1.10;;;;;;;28.87;40.67;101338.47;5110002;28;20035;-48
2022/08/04 01:17:35;;;;;;;1.60;0.80;;;;;;;28.82;40.64;101323.50;5103138;28;20123;-44
2022/08/04 01:20:07;;;;;;;0.95;0.73;;;;;;;28.81;40.71;101335.81;5113674;28;20027;-53
2022/08/04 01:22:35;;;;;;;1.58;0.63;;;;;;;28.72;40.98;101335.81;5113768;28;20054;-47
2022/08/04 01:25:42;;;;;;;1.55;1.02;;;;;;;28.76;40.81;101337.59;5113320;28;20050;-44
2022/08/04 01:28:30;;;;;;;2.70;0.75;;;;;;;28.83;40.56;101344.63;5065146;28;20048;-44
2022/08/04 01:31:03;;;;;;;4.25;1.30;;;;;;;28.82;40.65;101345.50;5073085;28;20029;-44
2022/08/04 01:33:32;;;;;;;1.80;1.00;;;;;;;28.83;40.45;101343.75;5073542;28;20025;-45
2022/08/04 01:36:06;;;;;;;1.45;0.85;;;;;;;28.78;40.25;101344.63;5071874;28;20460;-48
2022/08/04 01:38:39;;;;;;;1.30;0.80;;;;;;;28.85;40.17;101345.50;5073128;28;20115;-44
2022/08/04 01:41:10;;;;;;;1.50;0.83;;;;;;;28.84;40.25;101342.88;5071821;28;20459;-56
2022/08/04 01:43:43;;;;;;;1.27;0.75;;;;;;;28.80;40.19;101328.78;5072122;28;20028;-44
2022/08/04 01:46:14;;;;;;;2.58;0.93;;;;;;;28.77;40.12;101332.31;5071687;28;20028;-44
2022/08/04 01:48:46;;;;;;;0.95;0.70;;;;;;;28.76;40.21;101330.56;5073021;28;20036;-45
2022/08/04 01:51:15;;;;;;;4.30;1.35;;;;;;;28.72;40.46;101315.56;5071743;28;20025;-49
2022/08/04 01:53:44;;;;;;;2.95;0.73;;;;;;;28.72;40.43;101322.63;5071606;28;20032;-46
2022/08/04 01:56:13;;;;;;;2.92;1.00;;;;;;;28.81;40.40;101317.34;5072788;28;20468;-48
2022/08/04 01:58:42;;;;;;;1.42;0.77;;;;;;;28.82;40.10;101326.16;5072657;28;20052;-47
2022/08/04 02:01:12;;;;;;;3.58;1.05;;;;;;;28.72;40.17;101319.97;5073095;28;20496;-55
2022/08/04 02:03:42;;;;;;;1.92;0.88;;;;;;;28.80;39.96;101319.09;5072638;28;20032;-45
2022/08/04 02:06:38;;;;;;;4.40;1.10;;;;;;;28.77;40.07;101319.09;5072250;28;20129;-47
2022/08/04 02:09:05;;;;;;;;;;;;;;;28.68;40.20;101318.22;5073411;28;20028;-47
2022/08/04 02:11:34;;;;;;;1.38;0.60;;;;;;;28.66;40.14;101323.50;5072902;28;19934;-49
2022/08/04 02:14:41;;;;;;;2.35;0.98;;;;;;;28.61;40.30;101312.97;5073200;28;20424;-48
2022/08/04 02:17:15;;;;;;;2.42;1.35;;;;;;;28.70;39.88;101311.16;5075840;28;20039;-49
2022/08/04 02:19:46;;;;;;;1.73;0.85;;;;;;;28.64;40.00;101310.28;5076596;28;20460;-52
2022/08/04 02:22:18;;;;;;;1.77;0.90;;;;;;;28.58;40.14;101306.78;5075363;28;20085;-45
2022/08/04 02:24:50;;;;;;;2.15;0.90;;;;;;;28.56;40.24;101308.53;5076825;28;20058;-47
2022/08/04 02:27:23;;;;;;;2.50;1.00;;;;;;;28.46;40.03;101305.06;5113049;28;20036;-51
2022/08/04 02:29:58;;;;;;;2.35;0.90;;;;;;;28.56;40.24;101320.00;5098916;28;20028;-46
2022/08/04 02:32:28;;;;;;;1.80;1.05;;;;;;;28.58;39.84;101338.44;5082878;28;20023;-47
2022/08/04 02:35:12;;;;;;;3.67;1.02;;;;;;;28.62;40.07;101334.94;5116302;28;20031;-47
2022/08/04 02:37:48;;;;;;;3.55;1.10;;;;;;;28.58;40.07;101335.81;5099071;28;20057;-48
2022/08/04 02:40:21;;;;;;;2.08;0.88;;;;;;;28.64;40.12;101335.81;5116405;28;20031;-44
2022/08/04 02:42:50;;;;;;;1.88;0.90;;;;;;;28.40;40.67;101334.94;5116709;28;20028;-56
2022/08/04 02:45:20;;;;;;;5.32;1.10;;;;;;;28.35;40.37;101342.84;5098634;28;20035;-45
2022/08/04 02:47:50;;;;;;;1.60;0.77;;;;;;;28.40;40.45;101339.34;5098388;28;20110;-54
2022/08/04 02:50:19;;;;;;;2.85;0.82;;;;;;;28.47;40.25;101346.38;5081447;28;20481;-49
2022/08/04 02:52:50;;;;;;;2.47;0.90;;;;;;;28.53;40.26;101343.75;5098437;28;20051;-44
2022/08/04 02:55:19;;;;;;;1.42;0.75;;;;;;;28.42;40.10;101337.59;5098380;28;20051;-46
2022/08/04 02:57:49;;;;;;;1.27;0.80;;;;;;;28.33;40.51;101347.25;5098371;28;20020;-45
2022/08/04 03:00:18;;;;;;;1.63;0.90;;;;;;;28.38;40.47;101336.69;5098494;28;20106;-46
2022/08/04 03:02:56;;;;;;;3.85;0.98;;;;;;;28.41;40.40;101338.47;5116060;28;20462;-44
2022/08/04 03:05:32;;;;;;;2.13;1.23;;;;;;;28.48;40.27;101337.56;5115960;28;20035;-53
2022/08/04 03:08:29;;;;;;;2.80;1.00;;;;;;;28.43;40.20;101334.94;5116726;28;20030;-55
2022/08/04 03:11:21;;;;;;;2.85;1.13;;;;;;;28.46;40.38;101331.44;5091385;28;20433;-53
2022/08/04 03:14:02;;;;;;;2.70;1.10;;;;;;;28.52;39.76;101334.06;5091187;28;20085;-47
2022/08/04 03:16:53;;;;;;;2.97;0.90;;;;;;;28.46;40.08;101337.59;5115604;28;20086;-52
2022/08/04 03:19:48;;;;;;;2.30;0.90;;;;;;;28.39;40.19;101341.09;5107593;28;20047;-49
2022/08/04 03:22:36;;;;;;;3.28;0.95;;;;;;;28.58;39.78;101338.44;5105628;28;20483;-48
2022/08/04 03:25:35;;;;;;;1.48;0.85;;;;;;;28.44;39.86;101341.13;5106728;28;20036;-46
2022/08/04 03:28:05;;;;;;;1.40;0.80;;;;;;;28.49;39.97;101347.25;5115721;28;20108;-46
2022/08/04 03:31:11;;;;;;;1.85;0.73;;;;;;;28.44;40.14;101341.13;5115230;28;20019;-53
2022/08/04 03:33:45;;;;;;;3.00;0.95;;;;;;;28.43;39.82;101334.06;5103044;28;20467;-49
2022/08/04 03:36:48;;;;;;;1.52;0.80;;;;;;;28.43;40.13;101324.38;5115255;28;20027;-48
2022/08/04 03:39:54;;;;;;;2.85;1.10;;;;;;;28.48;39.79;101332.28;5102933;28;20122;-46
2022/08/04 03:43:01;;;;;;;2.15;1.00;;;;;;;28.52;39.93;101330.56;5105071;28;20092;-49
2022/08/04 03:45:48;;;;;;;2.10;0.90;;;;;;;28.55;39.61;101326.16;5088062;28;20376;-46
2022/08/04 03:48:39;;;;;;;1.75;0.95;;;;;;;28.56;39.73;101327.00;5106074;28;20039;-56
2022/08/04 03:54:59;;;;;;;1.35;0.70;;;;;;;28.46;39.71;101332.31;5097103;28;20446;-49
2022/08/04 03:57:30;;;;;;;;;;;;;;;28.60;39.64;101340.22;5113567;28;20030;-44
2022/08/04 04:00:07;;;;;;;2.08;1.02;;;;;;;28.54;39.49;101318.25;5096373;28;20323;-55
2022/08/04 04:02:56;;;;;;;4.03;0.80;;;;;;;28.48;39.55;101324.38;5115597;28;20034;-47
2022/08/04 04:05:35;;;;;;;5.45;1.17;;;;;;;28.40;39.92;101328.78;5108327;28;20418;-46
2022/08/04 04:08:22;;;;;;;3.55;1.00;;;;;;;28.34;39.91;101322.63;5114779;28;20024;-49
2022/08/04 04:11:14;;;;;;;2.88;1.00;;;;;;;28.32;40.00;101323.53;5115025;28;20089;-46
2022/08/04 04:13:47;;;;;;;2.67;1.10;;;;;;;28.33;39.85;101327.91;5107266;28;20097;-49
2022/08/04 04:16:42;;;;;;;2.00;0.77;;;;;;;28.29;39.89;101332.31;5114368;28;20032;-49
2022/08/04 04:19:49;;;;;;;1.95;0.80;;;;;;;28.29;39.88;101320.88;5090096;28;20430;-44
2022/08/04 04:22:43;;;;;;;2.78;0.88;;;;;;;28.29;40.02;101327.03;5102797;28;20531;-49
2022/08/04 04:25:19;;;;;;;2.88;1.20;;;;;;;28.28;39.84;101322.66;5089099;28;20419;-45
2022/08/04 04:28:26;;;;;;;2.10;0.95;;;;;;;28.29;39.72;101328.78;5096554;28;20475;-50
2022/08/04 04:31:32;;;;;;;2.90;0.95;;;;;;;28.22;39.94;101334.94;5086269;28;20031;-45
2022/08/04 04:34:20;;;;;;;3.03;0.98;;;;;;;28.33;39.60;101331.41;5112394;28;20028;-49
2022/08/04 04:36:59;;;;;;;2.70;1.00;;;;;;;28.23;39.81;101339.31;5108376;28;20430;-45
2022/08/04 04:39:49;;;;;;;2.60;1.10;;;;;;;28.17;39.96;101332.28;5114411;28;20047;-51
2022/08/04 04:42:37;;;;;;;1.75;0.80;;;;;;;28.21;39.84;101339.34;5105009;28;20096;-45
2022/08/04 04:45:13;;;;;;;2.58;0.90;;;;;;;28.34;39.56;101334.97;5107979;28;20039;-53
2022/08/04 04:48:04;;;;;;;1.60;0.90;;;;;;;28.14;39.76;101327.00;5114284;28;20023;-46
2022/08/04 04:50:41;;;;;;;2.60;1.02;;;;;;;28.23;39.53;101339.31;5095925;28;20051;-45
2022/08/04 04:53:30;;;;;;;3.42;1.30;;;;;;;28.22;39.48;101340.19;5114206;28;20035;-44
2022/08/04 04:56:23;;;;;;;1.23;0.90;;;;;;;28.17;39.55;101343.75;5113783;28;20031;-46
2022/08/04 04:58:54;;;;;;;3.63;0.95;;;;;;;28.15;39.86;101344.59;5103670;28;20047;-51
2022/08/04 05:01:34;;;;;;;2.03;0.90;;;;;;;28.14;39.82;101348.09;5096069;28;20040;-45
2022/08/04 05:04:28;;;;;;;4.20;1.30;;;;;;;28.11;39.82;101342.84;5114213;28;20543;-47
2022/08/04 05:07:15;;;;;;;1.40;0.85;;;;;;;28.15;39.94;101337.56;5088721;28;20036;-46
2022/08/04 05:10:11;;;;;;;2.20;1.02;;;;;;;28.10;39.45;101338.47;5104260;28;20034;-45
2022/08/04 05:13:02;;;;;;;7.05;1.27;;;;;;;27.96;40.01;101355.09;5106704;28;20058;-46
2022/08/04 05:15:34;;;;;;;1.45;0.90;;;;;;;27.92;40.06;101355.97;5105465;28;20036;-47
2022/08/04 05:18:04;;;;;;;3.70;1.10;;;;;;;27.95;39.78;101355.97;5095670;28;20023;-47
2022/08/04 05:20:39;;;;;;;3.22;1.00;;;;;;;28.08;39.65;101370.03;5113159;28;20032;-47
2022/08/04 05:23:28;;;;;;;2.30;1.10;;;;;;;28.00;39.92;101370.03;5113603;28;20024;-52
2022/08/04 05:25:58;;;;;;;3.42;0.70;;;;;;;28.02;39.83;101376.19;5113114;28;20138;-46
2022/08/04 05:28:28;;;;;;;3.17;1.17;;;;;;;27.92;40.10;101384.97;5112860;28;20482;-45
2022/08/04 05:31:03;;;;;;;6.07;1.20;;;;;;;27.85;40.24;101373.53;5113507;28;20069;-49
2022/08/04 05:33:47;;;;;;;4.80;1.45;;;;;;;27.95;40.00;101387.63;5113316;28;20057;-48
2022/08/04 05:36:18;;;;;;;4.50;1.20;;;;;;;27.98;39.90;101400.78;5095055;28;20478;-45
2022/08/04 05:38:51;;;;;;;4.82;1.38;;;;;;;27.98;39.73;101395.50;5113519;28;20032;-48
2022/08/04 05:41:20;;;;;;;4.95;1.00;;;;;;;28.04;39.77;101395.53;5113705;28;20072;-45
2022/08/04 05:43:50;;;;;;;5.22;1.20;;;;;;;28.13;39.41;101400.00;5095490;28;20027;-47
2022/08/04 05:46:18;;;;;;;4.05;1.20;;;;;;;28.17;39.31;101401.78;5095315;28;20077;-45
2022/08/04 05:48:47;;;;;;;7.00;1.30;;;;;;;28.30;39.42;101405.28;5096369;28;20450;-44
2022/08/04 05:51:16;;;;;;;3.97;1.42;;;;;;;28.44;38.91;101405.31;5117634;28;20023;-44
2022/08/04 05:53:46;;;;;;;9.07;1.38;;;;;;;28.40;38.81;101397.41;5100118;28;20062;-46
2022/08/04 05:56:15;;;;;;;3.38;1.20;;;;;;;28.40;39.07;101419.38;5117808;28;20059;-45
2022/08/04 05:58:45;;;;;;;4.95;1.63;;;;;;;28.42;38.83;101422.03;5117580;28;20058;-45
2022/08/04 06:01:15;;;;;;;6.82;1.17;;;;;;;28.42;39.12;101427.31;5098955;28;20053;-44
2022/08/04 06:03:46;;;;;;;5.03;1.08;;;;;;;28.42;39.05;101419.41;5099451;28;20028;-48
2022/08/04 06:06:15;;;;;;;4.35;1.35;;;;;;;28.42;39.15;101427.31;5117431;28;20031;-48
2022/08/04 06:08:44;;;;;;;4.50;1.20;;;;;;;28.45;39.34;101433.47;5099641;28;20363;-48
2022/08/04 06:11:13;;;;;;;4.45;1.55;;;;;;;28.47;39.11;101437.00;5117576;28;20020;-48
2022/08/04 06:14:01;;;;;;;5.00;1.27;;;;;;;28.45;39.27;101424.69;5082950;28;20099;-53
2022/08/04 06:16:41;;;;;;;3.17;1.50;;;;;;;28.53;39.21;101424.69;5099663;28;20038;-56
2022/08/04 06:19:13;;;;;;;5.63;1.38;;;;;;;28.55;39.23;101431.72;5099116;28;20052;-49
2022/08/04 06:21:45;;;;;;;6.78;1.30;;;;;;;28.53;39.18;101429.97;5117388;28;20028;-46
2022/08/04 06:24:17;;;;;;;3.75;1.17;;;;;;;28.59;39.05;101449.34;5117428;28;20024;-46
2022/08/04 06:26:48;;;;;;;4.10;1.15;;;;;;;28.68;39.07;101442.28;5116936;28;20495;-52
2022/08/04 06:29:23;;;;;;;2.55;1.30;;;;;;;28.76;39.14;101444.06;5116790;28;20497;-45
2022/08/04 06:32:02;;;;;;;4.93;0.90;;;;;;;28.82;39.08;101451.13;5117364;28;20034;-50
2022/08/04 06:34:31;;;;;;;2.35;0.80;;;;;;;28.85;38.86;101461.69;5116742;28;20032;-56
2022/08/04 06:36:59;;;;;;;3.92;1.05;;;;;;;28.95;39.06;101468.75;5099417;28;20016;-45
2022/08/04 06:39:29;;;;;;;7.10;1.55;;;;;;;28.96;38.57;101465.19;5098856;28;20030;-44
2022/08/04 06:41:57;;;;;;;4.63;1.60;;;;;;;29.08;38.78;101466.94;5116838;28;20027;-45
2022/08/04 06:44:27;;;;;;;3.65;1.10;;;;;;;29.02;38.59;101466.09;5098829;28;20098;-51
2022/08/04 06:46:56;;;;;;;2.38;1.02;;;;;;;29.03;39.04;101478.41;5116820;28;20023;-53
2022/08/04 06:49:26;;;;;;;3.75;1.48;;;;;;;29.04;39.34;101472.25;5116918;28;20107;-49
2022/08/04 06:51:55;;;;;;;3.03;1.17;;;;;;;29.12;38.76;101483.69;5098881;28;20032;-45
2022/08/04 06:54:24;;;;;;;2.83;0.93;;;;;;;29.11;39.02;101480.16;5116254;28;20020;-48
2022/08/04 06:56:54;;;;;;;2.28;0.80;;;;;;;29.16;38.80;101476.66;5117053;28;20024;-51
2022/08/04 06:59:23;;;;;;;5.72;1.63;;;;;;;29.15;39.17;101467.81;5098225;28;20432;-46
2022/08/04 07:01:52;;;;;;;4.75;1.23;;;;;;;29.18;38.89;101480.16;5098502;28;20027;-56
2022/08/04 07:04:21;;;;;;;3.53;1.10;;;;;;;29.25;38.82;101479.25;5116779;28;20511;-45
2022/08/04 07:06:49;;;;;;;3.35;0.70;;;;;;;29.22;38.79;101472.22;5098360;28;20107;-50
2022/08/04 07:09:18;;;;;;;1.85;0.70;;;;;;;29.28;38.42;101468.69;5098445;28;20019;-48
2022/08/04 07:11:47;;;;;;;5.57;1.30;;;;;;;29.30;38.70;101474.88;5098643;28;20532;-50
2022/08/04 07:14:17;;;;;;;4.35;1.60;;;;;;;29.28;38.35;101483.69;5098296;28;20031;-45
2022/08/04 07:16:45;;;;;;;9.05;2.17;;;;;;;29.26;38.43;101481.03;5115812;28;20452;-54
2022/08/04 07:19:14;;;;;;;7.10;1.20;;;;;;;29.24;38.28;101490.72;5116032;28;20393;-46
2022/08/04 07:21:42;;;;;;;3.72;1.13;;;;;;;29.22;38.11;101488.09;5098222;28;20036;-49
2022/08/04 07:24:11;;;;;;;10.25;1.58;;;;;;;29.22;38.03;101488.09;5116135;28;20106;-50
2022/08/04 07:26:40;;;;;;;8.80;1.60;;;;;;;29.26;37.57;101491.59;5098139;28;20475;-49
2022/08/04 07:29:08;;;;;;;4.15;1.35;;;;;;;29.21;37.73;101499.53;5115526;28;20489;-45
2022/08/04 07:31:37;;;;;;;5.60;1.38;;;;;;;29.22;37.67;101490.72;5081399;28;20070;-48
2022/08/04 07:34:06;;;;;;;5.38;1.83;;;;;;;29.22;37.31;101492.47;5098239;28;20031;-50
2022/08/04 07:36:34;;;;;;;7.78;1.40;;;;;;;29.12;37.90;101475.78;5115228;28;20478;-48
2022/08/04 07:39:03;;;;;;;7.20;1.83;;;;;;;29.34;37.47;101496.88;5115320;28;20028;-51
2022/08/04 07:41:32;;;;;;;7.13;1.70;;;;;;;29.24;37.56;101494.25;5115755;28;20131;-48
2022/08/04 07:44:00;;;;;;;4.70;1.80;;;;;;;29.29;37.31;101494.25;5115703;28;20020;-47
2022/08/04 07:46:29;;;;;;;5.05;1.20;;;;;;;29.34;37.47;101489.84;5097165;28;20070;-47
2022/08/04 07:48:58;;;;;;;4.55;1.25;;;;;;;29.38;37.25;101491.59;5115359;28;20081;-45
2022/08/04 07:51:27;;;;;;;4.38;1.67;;;;;;;29.47;36.90;101496.00;5097704;28;20023;-53
2022/08/04 07:53:57;;;;;;;7.38;1.63;;;;;;;29.45;36.89;101489.84;5097291;28;20034;-47
2022/08/04 07:56:26;;;;;;;5.60;1.50;;;;;;;29.41;37.03;101496.88;5097112;28;20123;-47
2022/08/04 07:58:55;;;;;;;4.70;1.40;;;;;;;29.45;36.80;101503.06;5097154;28;20038;-49
2022/08/04 08:01:24;;;;;;;3.75;1.40;;;;;;;29.50;36.77;101503.91;5080903;28;20016;-55
2022/08/04 08:03:55;;;;;;;4.82;1.20;;;;;;;29.46;36.87;101499.50;5115977;28;20072;-48
2022/08/04 08:06:25;;;;;;;4.97;1.55;;;;;;;29.47;36.67;101505.69;5115222;28;20042;-46
2022/08/04 08:08:53;;;;;;;9.23;1.80;;;;;;;29.56;36.38;101493.34;5115279;28;20024;-45
2022/08/04 08:11:22;;;;;;;5.95;1.77;;;;;;;29.54;36.52;101502.16;5079431;28;20028;-48
2022/08/04 08:13:51;;;;;;;5.25;1.65;;;;;;;29.48;36.46;101491.59;5097551;28;20027;-51
2022/08/04 08:16:19;;;;;;;5.32;1.33;;;;;;;29.54;36.10;101507.44;5115237;28;20023;-46
2022/08/04 08:18:48;;;;;;;4.32;1.40;;;;;;;29.51;35.97;101503.03;5115442;28;20387;-48
2022/08/04 08:21:19;;;;;;;7.30;1.75;;;;;;;29.49;35.90;101506.59;5115082;28;20016;-52
2022/08/04 08:23:49;;;;;;;4.32;1.50;;;;;;;29.44;35.48;101493.38;5115395;28;20024;-44
2022/08/04 08:26:18;;;;;;;4.95;1.40;;;;;;;29.52;35.19;101499.50;5096370;28;20044;-49
2022/08/04 08:28:46;;;;;;;4.25;1.27;;;;;;;29.63;35.32;101495.94;5097189;28;20118;-46
2022/08/04 08:31:15;;;;;;;2.97;0.93;;;;;;;29.63;35.27;101495.94;5115049;28;20103;-48
2022/08/04 08:33:44;;;;;;;5.82;1.30;;;;;;;29.65;34.56;101502.13;5096909;28;20034;-45
2022/08/04 08:36:32;;;;;;;4.65;1.08;;;;;;;29.64;35.02;101497.72;5114768;28;20482;-47
2022/08/04 08:39:10;;;;;;;4.93;1.17;;;;;;;29.64;34.22;101493.31;5107922;28;20067;-49
2022/08/04 08:41:48;;;;;;;5.85;1.38;;;;;;;29.66;34.50;101493.31;5114763;28;20020;-47
2022/08/04 08:44:39;;;;;;;3.28;0.98;;;;;;;29.73;34.37;101502.09;5114679;28;20063;-49
2022/08/04 08:47:30;;;;;;;3.55;1.00;;;;;;;29.69;34.55;101499.50;5107971;28;20108;-45
2022/08/04 08:50:23;;;;;;;4.85;1.27;;;;;;;29.74;34.28;101501.22;5107139;28;20134;-48
2022/08/04 08:53:14;;;;;;;5.78;1.35;;;;;;;29.74;34.53;101494.19;5104668;28;20122;-46
2022/08/04 08:56:09;;;;;;;5.10;1.35;;;;;;;29.73;34.29;101486.22;5105899;28;20088;-48
2022/08/04 08:58:48;;;;;;;3.35;1.17;;;;;;;29.67;34.07;101489.78;5096074;28;20023;-46
2022/08/04 09:01:18;;;;;;;6.38;1.35;;;;;;;29.67;33.91;101487.13;5095941;28;20031;-47
2022/08/04 09:04:15;;;;;;;6.18;1.05;;;;;;;29.71;33.74;101494.19;5114301;28;20439;-44
2022/08/04 09:07:21;;;;;;;4.35;1.15;;;;;;;29.69;34.01;101486.28;5108385;28;20410;-49
2022/08/04 09:09:53;;;;;;;3.83;1.25;;;;;;;29.78;33.66;101492.41;5113645;28;20023;-45
2022/08/04 09:12:30;;;;;;;7.60;1.63;;;;;;;29.76;33.27;101491.50;5096241;28;20031;-45
2022/08/04 09:15:04;;;;;;;3.67;1.23;;;;;;;29.78;33.50;101488.00;5096447;28;20031;-46
2022/08/04 09:18:03;;;;;;;6.53;1.30;;;;;;;29.74;33.03;101486.25;5095638;28;20059;-48
2022/08/04 09:20:40;;;;;;;3.88;1.30;;;;;;;29.83;33.51;101480.91;5103894;28;20403;-49
2022/08/04 09:23:16;;;;;;;6.40;1.02;;;;;;;29.84;33.39;101474.75;5095243;28;20023;-49
2022/08/04 09:26:16;;;;;;;5.45;1.48;;;;;;;29.84;33.31;101474.75;5096134;28;20048;-49
2022/08/04 09:29:11;;;;;;;6.90;1.45;;;;;;;29.94;33.12;101474.72;5081242;28;20575;-49
2022/08/04 09:31:45;;;;;;;;;;;;;;;29.98;33.25;101473.81;5107102;28;20028;-51
2022/08/04 09:34:22;;;;;;;3.28;0.80;;;;;;;29.97;33.33;101472.06;5095832;28;20328;-44
2022/08/04 09:36:57;;;;;;;3.97;1.10;;;;;;;29.98;33.01;101477.38;5113479;28;20035;-50
2022/08/04 09:39:31;;;;;;;7.00;1.25;;;;;;;29.94;32.99;101472.94;5095255;28;20497;-51
2022/08/04 09:42:08;;;;;;;8.95;1.20;;;;;;;29.92;33.16;101476.50;5095911;28;20390;-46
2022/08/04 09:44:56;;;;;;;2.95;1.17;;;;;;;29.91;32.75;101478.22;5113164;28;20031;-48
2022/08/04 09:48:02;;;;;;;4.65;1.13;;;;;;;29.93;33.29;101467.66;5102990;28;20065;-47
2022/08/04 09:50:35;;;;;;;5.72;1.25;;;;;;;29.93;33.09;101472.97;5101138;28;20043;-47
2022/08/04 09:53:40;;;;;;;4.85;1.08;;;;;;;29.90;32.89;101462.38;5095956;28;20072;-47
2022/08/04 09:56:30;;;;;;;3.40;0.93;;;;;;;29.97;32.63;101470.31;5102887;28;20039;-45
2022/08/04 09:59:24;;;;;;;3.55;0.90;;;;;;;29.92;32.64;101457.97;5113528;28;20020;-48
2022/08/04 10:01:59;;;;;;;2.50;0.90;;;;;;;30.03;32.42;101458.81;5113226;28;20038;-46
2022/08/04 10:04:28;;;;;;;;;;;;;;;30.07;32.48;101454.38;5113656;28;20483;-53
2022/08/04 10:07:24;;;;;;;4.30;1.27;;;;;;;30.01;32.44;101466.78;5113394;28;19937;-49
2022/08/04 10:10:15;;;;;;;4.18;1.30;;;;;;;29.99;32.40;101462.34;5107387;28;20554;-48
2022/08/04 10:13:21;;;;;;;5.72;1.20;;;;;;;30.00;32.00;101461.47;5089113;28;20470;-46
2022/08/04 10:15:59;;;;;;;3.65;0.95;;;;;;;29.95;32.61;101464.16;5101782;28;20050;-49
2022/08/04 10:18:56;;;;;;;3.88;1.05;;;;;;;29.96;32.14;101470.31;5095400;28;20028;-47
2022/08/04 10:21:39;;;;;;;7.95;1.00;;;;;;;29.92;31.34;101469.41;5103466;28;20039;-48
2022/08/04 10:24:44;;;;;;;4.38;1.27;;;;;;;29.93;31.67;101462.38;5113294;28;20359;-49
2022/08/04 10:27:41;;;;;;;2.50;1.00;;;;;;;29.97;32.63;101465.03;5103962;28;20456;-48
2022/08/04 10:30:11;;;;;;;3.05;0.80;;;;;;;29.96;32.36;101465.91;5074123;28;20408;-45
2022/08/04 10:32:44;;;;;;;3.95;1.48;;;;;;;29.91;32.75;101467.66;5113473;28;20046;-48
2022/08/04 10:35:25;;;;;;;3.47;1.10;;;;;;;29.89;32.58;101471.19;5096857;28;20028;-51
2022/08/04 10:38:29;;;;;;;3.30;0.98;;;;;;;29.93;32.62;101465.88;5117301;28;20054;-47
2022/08/04 10:41:19;;;;;;;6.20;1.25;;;;;;;29.94;32.51;101467.66;5107939;28;20035;-48
2022/08/04 10:44:11;;;;;;;4.47;1.02;;;;;;;29.97;32.31;101466.78;5090471;28;20036;-46
2022/08/04 10:46:46;;;;;;;6.53;0.82;;;;;;;29.97;31.75;101464.13;5109632;28;20482;-47
2022/08/04 10:49:22;;;;;;;3.50;1.02;;;;;;;30.03;31.90;101466.75;5098825;28;20027;-47
2022/08/04 10:52:10;;;;;;;3.30;1.27;;;;;;;30.04;32.30;101470.28;5116870;28;20356;-44
2022/08/04 10:55:06;;;;;;;4.15;0.90;;;;;;;30.01;31.61;101458.84;5116279;28;20467;-53
2022/08/04 10:57:56;;;;;;;3.67;0.88;;;;;;;30.08;31.63;101459.69;5111421;28;20070;-45
2022/08/04 11:00:27;;;;;;;3.97;1.13;;;;;;;30.08;31.55;101453.50;5090165;28;20482;-44
2022/08/04 11:03:18;;;;;;;2.42;0.95;;;;;;;30.01;31.69;101457.94;5116478;28;20088;-51
2022/08/04 11:05:53;;;;;;;3.40;0.90;;;;;;;29.99;31.80;101449.13;5088613;28;20402;-44
2022/08/04 11:08:26;;;;;;;;;;;;;;;29.93;31.82;101452.66;5117064;28;20024;-46
2022/08/04 11:11:15;;;;;;;3.45;0.80;;;;;;;30.01;32.22;101453.56;5098010;28;19954;-49
2022/08/04 11:13:49;;;;;;;3.67;0.95;;;;;;;30.06;32.05;101449.97;5107600;28;20042;-44
2022/08/04 11:16:22;;;;;;;2.53;0.70;;;;;;;30.04;32.15;101457.03;5097853;28;20110;-44
2022/08/04 11:19:07;;;;;;;3.63;1.00;;;;;;;29.99;32.23;101441.19;5097436;28;20028;-45
2022/08/04 11:21:43;;;;;;;2.13;0.82;;;;;;;29.98;32.78;101440.34;5116195;28;20022;-45
2022/08/04 11:24:37;;;;;;;5.32;0.93;;;;;;;30.05;32.68;101453.50;5116386;28;20408;-44
2022/08/04 11:27:14;;;;;;;2.60;0.82;;;;;;;30.12;32.06;101444.66;5115739;28;20050;-44
2022/08/04 11:29:57;;;;;;;2.05;0.73;;;;;;;30.13;32.28;101449.06;5097867;28;20059;-44
2022/08/04 11:32:38;;;;;;;4.30;1.00;;;;;;;30.13;32.21;101434.06;5080835;28;20024;-49
2022/08/04 11:35:12;;;;;;;7.68;1.25;;;;;;;30.26;31.74;101441.94;5115541;28;20024;-45
2022/08/04 11:38:07;;;;;;;4.53;1.17;;;;;;;30.29;31.09;101447.19;5097883;28;20027;-44
2022/08/04 11:40:41;;;;;;;4.37;1.00;;;;;;;30.38;30.57;101439.22;5115783;28;20028;-49
2022/08/04 11:43:25;;;;;;;6.72;1.38;;;;;;;30.28;31.13;101433.09;5097624;28;20373;-50
2022/08/04 11:45:57;;;;;;;4.50;1.38;;;;;;;30.31;30.18;101445.44;5114750;28;20028;-45
2022/08/04 11:48:33;;;;;;;3.58;1.10;;;;;;;30.27;30.73;101428.69;5097459;28;20023;-44
2022/08/04 11:51:04;;;;;;;3.63;1.27;;;;;;;30.29;29.92;101426.91;5098249;28;20459;-44
2022/08/04 11:53:34;;;;;;;3.17;1.15;;;;;;;30.28;30.28;101430.44;5097135;28;20123;-45
2022/08/04 11:56:07;;;;;;;3.30;1.10;;;;;;;30.28;30.15;101434.88;5097169;28;20035;-44
2022/08/04 11:58:36;;;;;;;5.47;1.38;;;;;;;30.29;31.07;101441.91;5115202;28;20038;-44
2022/08/04 12:01:42;;;;;;;2.83;1.20;;;;;;;30.15;31.17;101432.28;5097681;28;20031;-43
2022/08/04 12:04:18;;;;;;;4.53;1.55;;;;;;;30.26;30.66;101442.81;5113656;28;20509;-44
2022/08/04 12:07:25;;;;;;;4.45;1.05;;;;;;;30.29;30.46;101444.56;5115463;28;20428;-48
2022/08/04 12:10:09;;;;;;;5.78;1.13;;;;;;;30.28;31.28;101432.25;5115028;28;20382;-52
2022/08/04 12:12:39;;;;;;;;;;;;;;;30.33;30.58;101446.28;5080573;28;20475;-45
2022/08/04 12:15:12;;;;;;;4.18;1.23;;;;;;;30.37;30.58;101436.56;5096953;28;19912;-47
2022/08/04 12:17:52;;;;;;;4.33;1.20;;;;;;;30.28;30.44;101438.41;5097348;28;20032;-44
2022/08/04 12:20:24;;;;;;;5.10;1.25;;;;;;;30.34;30.52;101440.13;5096778;28;20388;-46
2022/08/04 12:22:54;;;;;;;3.22;1.20;;;;;;;30.32;30.54;101436.59;5114982;28;20497;-44